Jonathan — IIQB2 — position and weather

sailwx.info

Track history (hours):
 
Tides and Currents Weather Stations Pressure Air Temp Water Temp Dewpoint Dewpoint Depression Visibility Wind Speed Wind Dir Waves Ship Positions

Jonathan

Last reported at 2018-May-28 16:32 UTC. Time now 2018-Jun-19 12:46 UTC.
Position N 41°26' E 011°11'.
Warning: this ship's position is 21 days out of date.

Type: Fishing. MMSI: 247305860.

Date/timePositionNaut miles runAvg speedWind from/ knotsBaromVisibWave heightAir tempDewpointWater temp
2018-May-28 16:32N 41°26' E 011°11'0 0.7
2018-May-28 16:22N 41°26' E 011°11'0 0.5
2018-May-28 16:00N 41°26' E 011°12'0 0.9
2018-May-28 15:27N 41°25' E 011°12'1 1.0
2018-May-28 14:55N 41°25' E 011°12'7 0.7
2018-May-28 04:57N 41°19' E 011°16'0 0.2
2018-May-28 04:30N 41°19' E 011°16'5 1.8
2018-May-28 01:25N 41°23' E 011°11'4 8.9
2018-May-28 01:00N 41°25' E 011°07'  
2018-May-25 06:30N 41°06' E 010°54'0 0.3
2018-May-25 05:59N 41°06' E 010°54'0 0.0
2018-May-25 05:30N 41°06' E 010°54'2 0.6
2018-May-25 02:46N 41°05' E 010°55'  
Track history (hours):
 
Tides and Currents Weather Stations Pressure Air Temp Water Temp Dewpoint Dewpoint Depression Visibility Wind Speed Wind Dir Waves Ship Positions

Jonathan

Last reported at 2018-May-28 16:32 UTC. Time now 2018-Jun-19 12:46 UTC.
Position N 41°26' E 011°11'.
Warning: this ship's position is 21 days out of date.

Type: Fishing. MMSI: 247305860.

Date/timePositionNaut miles runAvg speedWind from/ knotsBaromVisibWave heightAir tempDewpointWater temp
2018-May-28 16:32N 41°26' E 011°11'0 0.7
2018-May-28 16:22N 41°26' E 011°11'0 0.5
2018-May-28 16:00N 41°26' E 011°12'0 0.9
2018-May-28 15:27N 41°25' E 011°12'1 1.0
2018-May-28 14:55N 41°25' E 011°12'7 0.7
2018-May-28 04:57N 41°19' E 011°16'0 0.2
2018-May-28 04:30N 41°19' E 011°16'5 1.8
2018-May-28 01:25N 41°23' E 011°11'4 8.9
2018-May-28 01:00N 41°25' E 011°07'  
2018-May-25 06:30N 41°06' E 010°54'0 0.3
2018-May-25 05:59N 41°06' E 010°54'0 0.0
2018-May-25 05:30N 41°06' E 010°54'2 0.6
2018-May-25 02:46N 41°05' E 010°55'  

Dump ship's entire track history